sensor_id;sensor_type;location;lat;lon;timestamp;temperature;humidity
6407;DHT22;3236;51.022;6.818;2023-04-24T00:01:30;10.60;99.90
6407;DHT22;3236;51.022;6.818;2023-04-24T00:03:57;11.00;99.90
6407;DHT22;3236;51.022;6.818;2023-04-24T00:06:25;10.90;99.90
6407;DHT22;3236;51.022;6.818;2023-04-24T00:09:00;10.70;99.90
6407;DHT22;3236;51.022;6.818;2023-04-24T00:11:28;11.00;99.90
6407;DHT22;3236;51.022;6.818;2023-04-24T00:13:55;11.10;99.90
6407;DHT22;3236;51.022;6.818;2023-04-24T00:16:25;10.90;99.90
6407;DHT22;3236;51.022;6.818;2023-04-24T00:18:53;11.30;99.90
6407;DHT22;3236;51.022;6.818;2023-04-24T00:21:20;11.00;99.90
6407;DHT22;3236;51.022;6.818;2023-04-24T00:23:51;10.90;99.90
6407;DHT22;3236;51.022;6.818;2023-04-24T00:26:20;11.60;99.90
6407;DHT22;3236;51.022;6.818;2023-04-24T00:28:50;11.80;99.90
6407;DHT22;3236;51.022;6.818;2023-04-24T00:31:17;11.10;99.90
6407;DHT22;3236;51.022;6.818;2023-04-24T00:33:44;11.30;99.90
6407;DHT22;3236;51.022;6.818;2023-04-24T00:41:13;11.90;99.90
6407;DHT22;3236;51.022;6.818;2023-04-24T00:46:12;11.20;99.90
6407;DHT22;3236;51.022;6.818;2023-04-24T00:48:40;11.30;99.90
6407;DHT22;3236;51.022;6.818;2023-04-24T00:56:02;11.00;99.90
6407;DHT22;3236;51.022;6.818;2023-04-24T00:58:34;11.10;99.90
6407;DHT22;3236;51.022;6.818;2023-04-24T01:01:04;11.00;99.90
6407;DHT22;3236;51.022;6.818;2023-04-24T01:03:47;11.00;99.90
6407;DHT22;3236;51.022;6.818;2023-04-24T01:06:17;11.00;99.90
6407;DHT22;3236;51.022;6.818;2023-04-24T01:11:13;10.90;99.90
6407;DHT22;3236;51.022;6.818;2023-04-24T01:18:39;11.20;99.90
6407;DHT22;3236;51.022;6.818;2023-04-24T01:21:11;10.90;99.90
6407;DHT22;3236;51.022;6.818;2023-04-24T01:23:41;10.70;99.90
6407;DHT22;3236;51.022;6.818;2023-04-24T01:26:09;10.70;99.90
6407;DHT22;3236;51.022;6.818;2023-04-24T01:28:37;10.80;99.90
6407;DHT22;3236;51.022;6.818;2023-04-24T01:31:04;10.70;99.90
6407;DHT22;3236;51.022;6.818;2023-04-24T01:33:32;9.90;99.90
6407;DHT22;3236;51.022;6.818;2023-04-24T01:38:29;10.10;99.90
6407;DHT22;3236;51.022;6.818;2023-04-24T01:41:00;10.00;99.90
6407;DHT22;3236;51.022;6.818;2023-04-24T01:45:54;9.70;99.90
6407;DHT22;3236;51.022;6.818;2023-04-24T01:48:22;9.60;99.90
6407;DHT22;3236;51.022;6.818;2023-04-24T01:50:52;9.60;99.90
6407;DHT22;3236;51.022;6.818;2023-04-24T01:53:19;9.40;99.90
6407;DHT22;3236;51.022;6.818;2023-04-24T01:55:46;9.30;99.90
6407;DHT22;3236;51.022;6.818;2023-04-24T01:58:15;9.00;99.90
6407;DHT22;3236;51.022;6.818;2023-04-24T02:00:42;9.10;99.90
6407;DHT22;3236;51.022;6.818;2023-04-24T02:03:09;9.10;99.90
6407;DHT22;3236;51.022;6.818;2023-04-24T02:05:36;9.30;99.90
6407;DHT22;3236;51.022;6.818;2023-04-24T02:08:03;9.00;99.90
6407;DHT22;3236;51.022;6.818;2023-04-24T02:10:30;9.20;99.90
6407;DHT22;3236;51.022;6.818;2023-04-24T02:13:00;9.20;99.90
6407;DHT22;3236;51.022;6.818;2023-04-24T02:15:32;9.20;99.90
6407;DHT22;3236;51.022;6.818;2023-04-24T02:17:59;9.70;99.90
6407;DHT22;3236;51.022;6.818;2023-04-24T02:20:54;8.50;99.90
6407;DHT22;3236;51.022;6.818;2023-04-24T02:23:22;9.00;99.90
6407;DHT22;3236;51.022;6.818;2023-04-24T02:25:49;9.10;99.90
6407;DHT22;3236;51.022;6.818;2023-04-24T02:30:44;9.20;99.90
6407;DHT22;3236;51.022;6.818;2023-04-24T02:33:12;8.90;99.90
6407;DHT22;3236;51.022;6.818;2023-04-24T02:35:39;9.30;99.90
6407;DHT22;3236;51.022;6.818;2023-04-24T02:38:06;9.60;99.90
6407;DHT22;3236;51.022;6.818;2023-04-24T02:40:36;9.50;99.90
6407;DHT22;3236;51.022;6.818;2023-04-24T02:43:03;9.20;99.90
6407;DHT22;3236;51.022;6.818;2023-04-24T02:45:30;9.40;99.90
6407;DHT22;3236;51.022;6.818;2023-04-24T02:48:01;9.50;99.90
6407;DHT22;3236;51.022;6.818;2023-04-24T02:50:28;9.50;99.90
6407;DHT22;3236;51.022;6.818;2023-04-24T02:52:55;9.60;99.90
6407;DHT22;3236;51.022;6.818;2023-04-24T02:55:22;9.30;99.90
6407;DHT22;3236;51.022;6.818;2023-04-24T02:57:50;9.60;99.90
6407;DHT22;3236;51.022;6.818;2023-04-24T03:00:17;9.30;99.90
6407;DHT22;3236;51.022;6.818;2023-04-24T03:02:45;9.60;99.90
6407;DHT22;3236;51.022;6.818;2023-04-24T03:05:13;9.50;99.90
6407;DHT22;3236;51.022;6.818;2023-04-24T03:07:42;9.60;99.90
6407;DHT22;3236;51.022;6.818;2023-04-24T03:10:12;10.00;99.90
6407;DHT22;3236;51.022;6.818;2023-04-24T03:12:42;9.60;99.90
6407;DHT22;3236;51.022;6.818;2023-04-24T03:15:13;9.60;99.90
6407;DHT22;3236;51.022;6.818;2023-04-24T03:17:41;9.40;99.90
6407;DHT22;3236;51.022;6.818;2023-04-24T03:20:09;9.50;99.90
6407;DHT22;3236;51.022;6.818;2023-04-24T03:22:37;9.60;99.90
6407;DHT22;3236;51.022;6.818;2023-04-24T03:25:05;9.50;99.90
6407;DHT22;3236;51.022;6.818;2023-04-24T03:27:33;9.50;99.90
6407;DHT22;3236;51.022;6.818;2023-04-24T03:30:00;9.50;99.90
6407;DHT22;3236;51.022;6.818;2023-04-24T03:32:29;9.80;99.90
6407;DHT22;3236;51.022;6.818;2023-04-24T03:34:57;9.50;99.90
6407;DHT22;3236;51.022;6.818;2023-04-24T03:37:24;9.50;99.90
6407;DHT22;3236;51.022;6.818;2023-04-24T03:42:20;9.10;99.90
6407;DHT22;3236;51.022;6.818;2023-04-24T03:44:47;9.20;99.90
6407;DHT22;3236;51.022;6.818;2023-04-24T03:47:14;9.30;99.90
6407;DHT22;3236;51.022;6.818;2023-04-24T03:49:42;9.80;99.90
6407;DHT22;3236;51.022;6.818;2023-04-24T03:52:09;9.60;99.90
6407;DHT22;3236;51.022;6.818;2023-04-24T03:54:35;9.50;99.90
6407;DHT22;3236;51.022;6.818;2023-04-24T03:57:04;9.50;99.90
6407;DHT22;3236;51.022;6.818;2023-04-24T03:59:31;9.40;99.90
6407;DHT22;3236;51.022;6.818;2023-04-24T04:01:58;8.80;99.90
6407;DHT22;3236;51.022;6.818;2023-04-24T04:04:25;9.50;99.90
6407;DHT22;3236;51.022;6.818;2023-04-24T04:06:52;9.40;99.90
6407;DHT22;3236;51.022;6.818;2023-04-24T04:09:19;9.70;99.90
6407;DHT22;3236;51.022;6.818;2023-04-24T04:11:47;9.40;99.90
6407;DHT22;3236;51.022;6.818;2023-04-24T04:14:15;9.20;99.90
6407;DHT22;3236;51.022;6.818;2023-04-24T04:16:42;9.50;99.90
6407;DHT22;3236;51.022;6.818;2023-04-24T04:19:10;9.20;99.90
6407;DHT22;3236;51.022;6.818;2023-04-24T04:21:40;9.50;99.90
6407;DHT22;3236;51.022;6.818;2023-04-24T04:24:07;9.50;99.90
6407;DHT22;3236;51.022;6.818;2023-04-24T04:26:35;9.30;99.90
6407;DHT22;3236;51.022;6.818;2023-04-24T04:29:03;9.50;99.90
6407;DHT22;3236;51.022;6.818;2023-04-24T04:31:33;9.50;99.90
6407;DHT22;3236;51.022;6.818;2023-04-24T04:34:00;9.50;99.90
6407;DHT22;3236;51.022;6.818;2023-04-24T04:36:28;9.30;99.90
6407;DHT22;3236;51.022;6.818;2023-04-24T04:38:56;9.50;99.90
6407;DHT22;3236;51.022;6.818;2023-04-24T04:41:24;9.50;99.90
6407;DHT22;3236;51.022;6.818;2023-04-24T04:43:54;9.50;99.90
6407;DHT22;3236;51.022;6.818;2023-04-24T04:46:24;9.80;99.90
6407;DHT22;3236;51.022;6.818;2023-04-24T04:48:53;9.50;99.90
6407;DHT22;3236;51.022;6.818;2023-04-24T04:51:22;9.30;99.90
6407;DHT22;3236;51.022;6.818;2023-04-24T04:53:49;9.50;99.90
6407;DHT22;3236;51.022;6.818;2023-04-24T04:56:16;9.60;99.90
6407;DHT22;3236;51.022;6.818;2023-04-24T04:58:43;9.50;99.90
6407;DHT22;3236;51.022;6.818;2023-04-24T05:01:10;9.50;99.90
6407;DHT22;3236;51.022;6.818;2023-04-24T05:03:37;9.50;99.90
6407;DHT22;3236;51.022;6.818;2023-04-24T05:06:06;9.30;99.90
6407;DHT22;3236;51.022;6.818;2023-04-24T05:08:33;9.90;99.90
6407;DHT22;3236;51.022;6.818;2023-04-24T05:11:01;9.70;99.90
6407;DHT22;3236;51.022;6.818;2023-04-24T05:13:28;9.70;99.90
6407;DHT22;3236;51.022;6.818;2023-04-24T05:15:55;9.60;99.90
6407;DHT22;3236;51.022;6.818;2023-04-24T05:18:22;9.10;99.90
6407;DHT22;3236;51.022;6.818;2023-04-24T05:20:49;9.50;99.90
6407;DHT22;3236;51.022;6.818;2023-04-24T05:23:20;9.40;99.90
6407;DHT22;3236;51.022;6.818;2023-04-24T05:25:49;9.30;99.90
6407;DHT22;3236;51.022;6.818;2023-04-24T05:28:16;9.20;99.90
6407;DHT22;3236;51.022;6.818;2023-04-24T05:30:43;9.20;99.90
6407;DHT22;3236;51.022;6.818;2023-04-24T05:33:10;9.00;99.90
6407;DHT22;3236;51.022;6.818;2023-04-24T05:35:37;9.10;99.90
6407;DHT22;3236;51.022;6.818;2023-04-24T05:38:04;9.10;99.90
6407;DHT22;3236;51.022;6.818;2023-04-24T05:40:32;9.80;99.90
6407;DHT22;3236;51.022;6.818;2023-04-24T05:42:59;9.00;99.90
6407;DHT22;3236;51.022;6.818;2023-04-24T05:45:26;9.00;99.90
6407;DHT22;3236;51.022;6.818;2023-04-24T05:47:53;9.00;99.90
6407;DHT22;3236;51.022;6.818;2023-04-24T05:50:20;9.00;99.90
6407;DHT22;3236;51.022;6.818;2023-04-24T05:52:48;9.10;99.90
6407;DHT22;3236;51.022;6.818;2023-04-24T05:55:15;9.10;99.90
6407;DHT22;3236;51.022;6.818;2023-04-24T05:57:45;9.10;99.90
6407;DHT22;3236;51.022;6.818;2023-04-24T06:00:13;9.50;99.90
6407;DHT22;3236;51.022;6.818;2023-04-24T06:02:41;9.10;99.90
6407;DHT22;3236;51.022;6.818;2023-04-24T06:05:08;9.20;99.90
6407;DHT22;3236;51.022;6.818;2023-04-24T06:07:35;8.80;99.90
6407;DHT22;3236;51.022;6.818;2023-04-24T06:10:03;9.30;99.90
6407;DHT22;3236;51.022;6.818;2023-04-24T06:12:30;9.10;99.90
6407;DHT22;3236;51.022;6.818;2023-04-24T06:15:02;9.00;99.90
6407;DHT22;3236;51.022;6.818;2023-04-24T06:17:29;9.00;99.90
6407;DHT22;3236;51.022;6.818;2023-04-24T06:19:58;9.10;99.90
6407;DHT22;3236;51.022;6.818;2023-04-24T06:22:25;8.80;99.90
6407;DHT22;3236;51.022;6.818;2023-04-24T06:24:53;8.70;99.90
6407;DHT22;3236;51.022;6.818;2023-04-24T06:27:20;9.10;99.90
6407;DHT22;3236;51.022;6.818;2023-04-24T06:29:47;8.80;99.90
6407;DHT22;3236;51.022;6.818;2023-04-24T06:32:21;8.80;99.90
6407;DHT22;3236;51.022;6.818;2023-04-24T06:34:48;8.80;99.90
6407;DHT22;3236;51.022;6.818;2023-04-24T06:37:15;8.70;99.90
6407;DHT22;3236;51.022;6.818;2023-04-24T06:39:43;8.50;99.90
6407;DHT22;3236;51.022;6.818;2023-04-24T06:42:10;8.90;99.90
6407;DHT22;3236;51.022;6.818;2023-04-24T06:44:37;8.30;99.90
6407;DHT22;3236;51.022;6.818;2023-04-24T06:47:06;8.60;99.90
6407;DHT22;3236;51.022;6.818;2023-04-24T06:49:38;8.80;99.90
6407;DHT22;3236;51.022;6.818;2023-04-24T06:52:05;8.60;99.90
6407;DHT22;3236;51.022;6.818;2023-04-24T06:54:33;8.50;99.90
6407;DHT22;3236;51.022;6.818;2023-04-24T06:57:01;8.60;99.90
6407;DHT22;3236;51.022;6.818;2023-04-24T06:59:29;8.50;99.90
6407;DHT22;3236;51.022;6.818;2023-04-24T07:01:56;8.40;99.90
6407;DHT22;3236;51.022;6.818;2023-04-24T07:04:23;8.40;99.90
6407;DHT22;3236;51.022;6.818;2023-04-24T07:06:52;8.30;99.90
6407;DHT22;3236;51.022;6.818;2023-04-24T07:09:21;8.30;99.90
6407;DHT22;3236;51.022;6.818;2023-04-24T07:11:49;8.20;99.90
6407;DHT22;3236;51.022;6.818;2023-04-24T07:14:17;8.10;99.90
6407;DHT22;3236;51.022;6.818;2023-04-24T07:16:44;8.20;99.90
6407;DHT22;3236;51.022;6.818;2023-04-24T07:19:15;8.10;99.90
6407;DHT22;3236;51.022;6.818;2023-04-24T07:21:42;8.20;99.90
6407;DHT22;3236;51.022;6.818;2023-04-24T07:24:11;8.20;99.90
6407;DHT22;3236;51.022;6.818;2023-04-24T07:26:38;8.10;99.90
6407;DHT22;3236;51.022;6.818;2023-04-24T07:29:06;8.20;99.90
6407;DHT22;3236;51.022;6.818;2023-04-24T07:31:33;8.10;99.90
6407;DHT22;3236;51.022;6.818;2023-04-24T07:34:00;8.10;99.90
6407;DHT22;3236;51.022;6.818;2023-04-24T07:36:27;8.00;99.90
6407;DHT22;3236;51.022;6.818;2023-04-24T07:38:55;7.90;99.90
6407;DHT22;3236;51.022;6.818;2023-04-24T07:41:24;7.90;99.90
6407;DHT22;3236;51.022;6.818;2023-04-24T07:43:53;7.80;99.90
6407;DHT22;3236;51.022;6.818;2023-04-24T07:46:20;7.70;99.90
6407;DHT22;3236;51.022;6.818;2023-04-24T07:48:49;7.80;99.90
6407;DHT22;3236;51.022;6.818;2023-04-24T07:51:16;7.60;99.90
6407;DHT22;3236;51.022;6.818;2023-04-24T07:53:46;7.70;99.90
6407;DHT22;3236;51.022;6.818;2023-04-24T07:56:13;7.50;99.90
6407;DHT22;3236;51.022;6.818;2023-04-24T07:58:41;7.60;99.90
6407;DHT22;3236;51.022;6.818;2023-04-24T08:01:10;7.40;99.90
6407;DHT22;3236;51.022;6.818;2023-04-24T08:03:38;7.50;99.90
6407;DHT22;3236;51.022;6.818;2023-04-24T08:06:05;7.30;99.90
6407;DHT22;3236;51.022;6.818;2023-04-24T08:08:33;7.20;99.90
6407;DHT22;3236;51.022;6.818;2023-04-24T08:11:02;7.40;99.90
6407;DHT22;3236;51.022;6.818;2023-04-24T08:13:29;7.40;99.90
6407;DHT22;3236;51.022;6.818;2023-04-24T08:15:57;7.40;99.90
6407;DHT22;3236;51.022;6.818;2023-04-24T08:20:52;7.30;99.90
6407;DHT22;3236;51.022;6.818;2023-04-24T08:23:22;7.20;99.90
6407;DHT22;3236;51.022;6.818;2023-04-24T08:25:49;7.70;99.90
6407;DHT22;3236;51.022;6.818;2023-04-24T08:28:16;7.30;99.90
6407;DHT22;3236;51.022;6.818;2023-04-24T08:30:45;7.30;99.90
6407;DHT22;3236;51.022;6.818;2023-04-24T08:33:14;7.40;99.90
6407;DHT22;3236;51.022;6.818;2023-04-24T08:35:42;7.10;99.90
6407;DHT22;3236;51.022;6.818;2023-04-24T08:38:09;7.50;99.90
6407;DHT22;3236;51.022;6.818;2023-04-24T08:40:37;7.30;99.90
6407;DHT22;3236;51.022;6.818;2023-04-24T08:43:05;7.70;99.90
6407;DHT22;3236;51.022;6.818;2023-04-24T08:45:33;7.20;99.90
6407;DHT22;3236;51.022;6.818;2023-04-24T08:48:00;7.50;99.90
6407;DHT22;3236;51.022;6.818;2023-04-24T08:50:29;7.40;99.90
6407;DHT22;3236;51.022;6.818;2023-04-24T08:52:58;8.50;99.90
6407;DHT22;3236;51.022;6.818;2023-04-24T08:55:26;7.40;99.90
6407;DHT22;3236;51.022;6.818;2023-04-24T08:57:53;7.70;99.90
6407;DHT22;3236;51.022;6.818;2023-04-24T09:00:30;7.30;99.90
6407;DHT22;3236;51.022;6.818;2023-04-24T09:02:59;7.40;99.90
6407;DHT22;3236;51.022;6.818;2023-04-24T09:05:32;7.10;99.90
6407;DHT22;3236;51.022;6.818;2023-04-24T09:08:02;7.70;99.90
6407;DHT22;3236;51.022;6.818;2023-04-24T09:12:59;7.80;99.90
6407;DHT22;3236;51.022;6.818;2023-04-24T09:15:28;7.20;99.90
6407;DHT22;3236;51.022;6.818;2023-04-24T09:17:55;7.50;99.90
6407;DHT22;3236;51.022;6.818;2023-04-24T09:20:23;7.50;99.90
6407;DHT22;3236;51.022;6.818;2023-04-24T09:22:53;7.40;99.90
6407;DHT22;3236;51.022;6.818;2023-04-24T09:25:31;7.10;99.90
6407;DHT22;3236;51.022;6.818;2023-04-24T09:28:01;7.60;99.90
6407;DHT22;3236;51.022;6.818;2023-04-24T09:30:31;7.70;99.90
6407;DHT22;3236;51.022;6.818;2023-04-24T09:33:10;7.60;99.90
6407;DHT22;3236;51.022;6.818;2023-04-24T09:35:40;7.60;99.90
6407;DHT22;3236;51.022;6.818;2023-04-24T09:38:10;8.10;99.90
6407;DHT22;3236;51.022;6.818;2023-04-24T09:40:37;7.90;99.90
6407;DHT22;3236;51.022;6.818;2023-04-24T09:43:04;8.00;99.90
6407;DHT22;3236;51.022;6.818;2023-04-24T09:45:38;8.00;99.90
6407;DHT22;3236;51.022;6.818;2023-04-24T09:48:07;8.10;99.90
6407;DHT22;3236;51.022;6.818;2023-04-24T09:50:38;7.80;99.90
6407;DHT22;3236;51.022;6.818;2023-04-24T09:53:14;8.40;99.90
6407;DHT22;3236;51.022;6.818;2023-04-24T09:55:45;8.20;99.90
6407;DHT22;3236;51.022;6.818;2023-04-24T09:58:14;8.10;99.90
6407;DHT22;3236;51.022;6.818;2023-04-24T10:00:41;8.40;99.90
6407;DHT22;3236;51.022;6.818;2023-04-24T10:03:08;8.50;99.90
6407;DHT22;3236;51.022;6.818;2023-04-24T10:05:36;8.60;99.90
6407;DHT22;3236;51.022;6.818;2023-04-24T10:08:06;8.80;99.90
6407;DHT22;3236;51.022;6.818;2023-04-24T10:10:42;7.90;99.90
6407;DHT22;3236;51.022;6.818;2023-04-24T10:13:11;8.70;99.90
6407;DHT22;3236;51.022;6.818;2023-04-24T10:15:42;8.80;99.90
6407;DHT22;3236;51.022;6.818;2023-04-24T10:18:10;8.90;99.90
6407;DHT22;3236;51.022;6.818;2023-04-24T10:20:38;9.40;99.90
6407;DHT22;3236;51.022;6.818;2023-04-24T10:23:08;9.10;99.90
6407;DHT22;3236;51.022;6.818;2023-04-24T10:25:40;9.50;99.90
6407;DHT22;3236;51.022;6.818;2023-04-24T10:28:07;9.20;99.90
6407;DHT22;3236;51.022;6.818;2023-04-24T10:30:43;9.40;99.90
6407;DHT22;3236;51.022;6.818;2023-04-24T10:33:10;9.60;99.90
6407;DHT22;3236;51.022;6.818;2023-04-24T10:35:41;9.20;99.90
6407;DHT22;3236;51.022;6.818;2023-04-24T10:38:12;9.00;99.90
6407;DHT22;3236;51.022;6.818;2023-04-24T10:40:42;9.00;99.90
6407;DHT22;3236;51.022;6.818;2023-04-24T10:43:10;8.90;99.90
6407;DHT22;3236;51.022;6.818;2023-04-24T10:45:38;8.50;99.90
6407;DHT22;3236;51.022;6.818;2023-04-24T10:48:06;8.60;99.90
6407;DHT22;3236;51.022;6.818;2023-04-24T10:50:43;8.80;99.90
6407;DHT22;3236;51.022;6.818;2023-04-24T10:53:16;8.50;99.90
6407;DHT22;3236;51.022;6.818;2023-04-24T10:55:46;8.60;99.90
6407;DHT22;3236;51.022;6.818;2023-04-24T10:58:15;8.60;99.90
6407;DHT22;3236;51.022;6.818;2023-04-24T11:00:56;8.50;99.90
6407;DHT22;3236;51.022;6.818;2023-04-24T11:03:26;8.60;99.90
6407;DHT22;3236;51.022;6.818;2023-04-24T11:05:56;8.40;99.90
6407;DHT22;3236;51.022;6.818;2023-04-24T11:08:26;8.20;99.90
6407;DHT22;3236;51.022;6.818;2023-04-24T11:10:59;8.70;99.90
6407;DHT22;3236;51.022;6.818;2023-04-24T11:16:15;8.80;99.90
6407;DHT22;3236;51.022;6.818;2023-04-24T11:18:50;9.40;99.90
6407;DHT22;3236;51.022;6.818;2023-04-24T11:21:24;9.90;99.90
6407;DHT22;3236;51.022;6.818;2023-04-24T11:23:52;10.80;99.90
6407;DHT22;3236;51.022;6.818;2023-04-24T11:26:23;10.70;99.90
6407;DHT22;3236;51.022;6.818;2023-04-24T11:29:06;10.70;99.90
6407;DHT22;3236;51.022;6.818;2023-04-24T11:31:37;10.80;99.90
6407;DHT22;3236;51.022;6.818;2023-04-24T11:34:09;10.60;99.90
6407;DHT22;3236;51.022;6.818;2023-04-24T11:36:37;10.30;99.90
6407;DHT22;3236;51.022;6.818;2023-04-24T11:39:05;9.90;99.90
6407;DHT22;3236;51.022;6.818;2023-04-24T11:41:34;10.30;99.90
6407;DHT22;3236;51.022;6.818;2023-04-24T11:44:02;10.40;99.90
6407;DHT22;3236;51.022;6.818;2023-04-24T11:46:30;10.10;99.90
6407;DHT22;3236;51.022;6.818;2023-04-24T11:51:27;10.30;99.90
6407;DHT22;3236;51.022;6.818;2023-04-24T11:53:55;10.20;99.90
6407;DHT22;3236;51.022;6.818;2023-04-24T11:56:23;10.30;99.90
6407;DHT22;3236;51.022;6.818;2023-04-24T11:58:53;10.30;99.90
6407;DHT22;3236;51.022;6.818;2023-04-24T12:06:20;9.80;99.90
6407;DHT22;3236;51.022;6.818;2023-04-24T12:08:52;9.50;99.90
6407;DHT22;3236;51.022;6.818;2023-04-24T12:11:26;10.10;99.90
6407;DHT22;3236;51.022;6.818;2023-04-24T12:18:56;10.20;99.90
6407;DHT22;3236;51.022;6.818;2023-04-24T12:26:27;10.40;99.90
6407;DHT22;3236;51.022;6.818;2023-04-24T12:29:01;10.80;99.90
6407;DHT22;3236;51.022;6.818;2023-04-24T12:36:37;12.00;99.90
6407;DHT22;3236;51.022;6.818;2023-04-24T12:39:14;11.60;99.90
6407;DHT22;3236;51.022;6.818;2023-04-24T12:44:19;11.10;99.90
6407;DHT22;3236;51.022;6.818;2023-04-24T12:46:46;11.60;99.90
6407;DHT22;3236;51.022;6.818;2023-04-24T12:59:05;11.90;99.90
6407;DHT22;3236;51.022;6.818;2023-04-24T13:01:36;12.70;99.90
6407;DHT22;3236;51.022;6.818;2023-04-24T13:11:35;14.40;99.90
6407;DHT22;3236;51.022;6.818;2023-04-24T13:14:07;14.10;99.90
6407;DHT22;3236;51.022;6.818;2023-04-24T13:19:07;14.10;99.90
6407;DHT22;3236;51.022;6.818;2023-04-24T13:21:40;14.60;99.90
6407;DHT22;3236;51.022;6.818;2023-04-24T13:26:38;15.10;99.90
6407;DHT22;3236;51.022;6.818;2023-04-24T13:34:03;15.20;99.90
6407;DHT22;3236;51.022;6.818;2023-04-24T13:41:25;13.20;99.90
6407;DHT22;3236;51.022;6.818;2023-04-24T13:43:52;12.60;99.90
6407;DHT22;3236;51.022;6.818;2023-04-24T13:46:21;12.30;99.90
6407;DHT22;3236;51.022;6.818;2023-04-24T13:48:49;11.60;99.90
6407;DHT22;3236;51.022;6.818;2023-04-24T13:51:16;11.70;99.90
6407;DHT22;3236;51.022;6.818;2023-04-24T13:58:43;12.60;99.90
6407;DHT22;3236;51.022;6.818;2023-04-24T14:01:10;13.10;99.90
6407;DHT22;3236;51.022;6.818;2023-04-24T14:03:41;13.80;99.90
6407;DHT22;3236;51.022;6.818;2023-04-24T14:06:13;14.30;99.90
6407;DHT22;3236;51.022;6.818;2023-04-24T14:08:40;15.30;99.90
6407;DHT22;3236;51.022;6.818;2023-04-24T14:11:08;15.10;99.90
6407;DHT22;3236;51.022;6.818;2023-04-24T14:13:36;14.10;99.90
6407;DHT22;3236;51.022;6.818;2023-04-24T14:18:32;14.00;99.90
6407;DHT22;3236;51.022;6.818;2023-04-24T14:21:02;15.40;99.90
6407;DHT22;3236;51.022;6.818;2023-04-24T14:23:30;15.90;99.90
6407;DHT22;3236;51.022;6.818;2023-04-24T14:25:57;15.10;99.90
6407;DHT22;3236;51.022;6.818;2023-04-24T14:28:25;15.10;99.90
6407;DHT22;3236;51.022;6.818;2023-04-24T14:30:53;15.30;99.90
6407;DHT22;3236;51.022;6.818;2023-04-24T14:33:20;15.60;99.90
6407;DHT22;3236;51.022;6.818;2023-04-24T14:35:47;16.30;98.40
6407;DHT22;3236;51.022;6.818;2023-04-24T14:38:14;17.30;97.10
6407;DHT22;3236;51.022;6.818;2023-04-24T14:40:43;16.60;96.70
6407;DHT22;3236;51.022;6.818;2023-04-24T14:43:10;16.20;97.60
6407;DHT22;3236;51.022;6.818;2023-04-24T14:45:38;15.80;97.50
6407;DHT22;3236;51.022;6.818;2023-04-24T14:48:06;16.30;99.00
6407;DHT22;3236;51.022;6.818;2023-04-24T14:50:35;14.80;96.30
6407;DHT22;3236;51.022;6.818;2023-04-24T14:53:02;15.80;96.30
6407;DHT22;3236;51.022;6.818;2023-04-24T14:55:29;16.10;95.50
6407;DHT22;3236;51.022;6.818;2023-04-24T14:57:58;16.20;95.00
6407;DHT22;3236;51.022;6.818;2023-04-24T15:00:25;16.20;95.60
6407;DHT22;3236;51.022;6.818;2023-04-24T15:02:52;15.70;96.60
6407;DHT22;3236;51.022;6.818;2023-04-24T15:05:20;15.70;97.70
6407;DHT22;3236;51.022;6.818;2023-04-24T15:07:48;15.40;97.00
6407;DHT22;3236;51.022;6.818;2023-04-24T15:10:15;15.60;96.80
6407;DHT22;3236;51.022;6.818;2023-04-24T15:12:43;16.10;95.70
6407;DHT22;3236;51.022;6.818;2023-04-24T15:15:11;16.80;95.70
6407;DHT22;3236;51.022;6.818;2023-04-24T15:17:38;17.00;93.80
6407;DHT22;3236;51.022;6.818;2023-04-24T15:20:06;16.50;94.00
6407;DHT22;3236;51.022;6.818;2023-04-24T15:22:34;15.10;97.30
6407;DHT22;3236;51.022;6.818;2023-04-24T15:25:01;14.70;96.70
6407;DHT22;3236;51.022;6.818;2023-04-24T15:27:39;15.10;95.70
6407;DHT22;3236;51.022;6.818;2023-04-24T15:30:08;15.80;95.50
6407;DHT22;3236;51.022;6.818;2023-04-24T15:32:37;15.30;93.50
6407;DHT22;3236;51.022;6.818;2023-04-24T15:35:05;16.40;93.30
6407;DHT22;3236;51.022;6.818;2023-04-24T15:37:32;16.50;92.90
6407;DHT22;3236;51.022;6.818;2023-04-24T15:40:00;16.60;92.50
6407;DHT22;3236;51.022;6.818;2023-04-24T15:42:29;15.90;93.00
6407;DHT22;3236;51.022;6.818;2023-04-24T15:49:53;15.00;96.30
6407;DHT22;3236;51.022;6.818;2023-04-24T15:52:20;14.50;95.30
6407;DHT22;3236;51.022;6.818;2023-04-24T15:54:50;14.60;97.70
6407;DHT22;3236;51.022;6.818;2023-04-24T15:57:18;15.60;95.30
6407;DHT22;3236;51.022;6.818;2023-04-24T15:59:45;15.10;96.00
6407;DHT22;3236;51.022;6.818;2023-04-24T16:02:13;15.60;95.60
6407;DHT22;3236;51.022;6.818;2023-04-24T16:04:44;15.40;93.50
6407;DHT22;3236;51.022;6.818;2023-04-24T16:07:13;16.00;93.90
6407;DHT22;3236;51.022;6.818;2023-04-24T16:09:42;15.30;92.70
6407;DHT22;3236;51.022;6.818;2023-04-24T16:12:10;16.70;92.20
6407;DHT22;3236;51.022;6.818;2023-04-24T16:14:41;16.90;91.30
6407;DHT22;3236;51.022;6.818;2023-04-24T16:17:08;17.00;91.50
6407;DHT22;3236;51.022;6.818;2023-04-24T16:19:35;16.50;93.80
6407;DHT22;3236;51.022;6.818;2023-04-24T16:22:03;15.90;93.80
6407;DHT22;3236;51.022;6.818;2023-04-24T16:24:31;15.30;93.80
6407;DHT22;3236;51.022;6.818;2023-04-24T16:27:00;14.60;94.90
6407;DHT22;3236;51.022;6.818;2023-04-24T16:29:29;14.30;95.50
6407;DHT22;3236;51.022;6.818;2023-04-24T16:31:56;14.20;96.30
6407;DHT22;3236;51.022;6.818;2023-04-24T16:34:23;14.10;97.20
6407;DHT22;3236;51.022;6.818;2023-04-24T16:36:50;14.00;97.80
6407;DHT22;3236;51.022;6.818;2023-04-24T16:39:21;13.70;98.00
6407;DHT22;3236;51.022;6.818;2023-04-24T16:44:18;13.00;99.00
6407;DHT22;3236;51.022;6.818;2023-04-24T16:51:45;12.30;98.80
6407;DHT22;3236;51.022;6.818;2023-04-24T16:54:12;13.20;99.00
6407;DHT22;3236;51.022;6.818;2023-04-24T16:56:39;13.40;99.70
6407;DHT22;3236;51.022;6.818;2023-04-24T16:59:08;13.70;98.90
6407;DHT22;3236;51.022;6.818;2023-04-24T17:01:35;13.50;98.40
6407;DHT22;3236;51.022;6.818;2023-04-24T17:04:02;13.30;97.70
6407;DHT22;3236;51.022;6.818;2023-04-24T17:06:29;13.40;98.00
6407;DHT22;3236;51.022;6.818;2023-04-24T17:11:31;12.90;99.90
6407;DHT22;3236;51.022;6.818;2023-04-24T17:14:04;12.50;99.90
6407;DHT22;3236;51.022;6.818;2023-04-24T17:19:07;12.40;99.90
6407;DHT22;3236;51.022;6.818;2023-04-24T17:21:39;12.40;99.90
6407;DHT22;3236;51.022;6.818;2023-04-24T17:24:06;12.50;99.90
6407;DHT22;3236;51.022;6.818;2023-04-24T17:26:33;12.30;99.90
6407;DHT22;3236;51.022;6.818;2023-04-24T17:29:00;12.30;99.90
6407;DHT22;3236;51.022;6.818;2023-04-24T17:31:27;12.00;99.90
6407;DHT22;3236;51.022;6.818;2023-04-24T17:33:56;12.00;99.90
6407;DHT22;3236;51.022;6.818;2023-04-24T17:36:24;11.80;99.90
6407;DHT22;3236;51.022;6.818;2023-04-24T17:38:51;11.80;99.90
6407;DHT22;3236;51.022;6.818;2023-04-24T17:41:19;11.40;99.90
6407;DHT22;3236;51.022;6.818;2023-04-24T17:43:46;11.60;99.90
6407;DHT22;3236;51.022;6.818;2023-04-24T17:46:13;11.40;99.90
6407;DHT22;3236;51.022;6.818;2023-04-24T17:48:40;11.30;99.90
6407;DHT22;3236;51.022;6.818;2023-04-24T17:51:09;11.00;99.90
6407;DHT22;3236;51.022;6.818;2023-04-24T17:53:39;11.20;99.90
6407;DHT22;3236;51.022;6.818;2023-04-24T17:56:06;11.20;99.90
6407;DHT22;3236;51.022;6.818;2023-04-24T17:58:34;10.60;99.90
6407;DHT22;3236;51.022;6.818;2023-04-24T18:01:02;11.30;99.90
6407;DHT22;3236;51.022;6.818;2023-04-24T18:03:29;11.10;99.90
6407;DHT22;3236;51.022;6.818;2023-04-24T18:05:56;10.90;99.90
6407;DHT22;3236;51.022;6.818;2023-04-24T18:08:27;10.90;99.90
6407;DHT22;3236;51.022;6.818;2023-04-24T18:10:54;10.80;99.90
6407;DHT22;3236;51.022;6.818;2023-04-24T18:13:21;10.60;99.90
6407;DHT22;3236;51.022;6.818;2023-04-24T18:15:48;10.50;99.90
6407;DHT22;3236;51.022;6.818;2023-04-24T18:18:16;10.00;99.90
6407;DHT22;3236;51.022;6.818;2023-04-24T18:20:43;10.10;99.90